createdAt,value
2023-05-23T11:21:42.560Z,39.01
2023-05-23T11:24:15.645Z,38.91
2023-05-23T11:27:00.766Z,38.66
2023-05-23T11:29:32.075Z,38.48
2023-05-23T11:32:03.741Z,38.33
2023-05-23T11:34:34.459Z,38.63
2023-05-23T11:37:05.022Z,38.36
2023-05-23T11:39:37.117Z,38.39
2023-05-23T11:42:10.815Z,38.29
2023-05-23T11:44:43.710Z,38.41
2023-05-23T11:47:14.241Z,38.31
2023-05-23T11:49:48.636Z,38.13
2023-05-23T11:52:19.281Z,37.99
2023-05-23T11:54:55.941Z,38.22
2023-05-23T11:57:29.978Z,38.05
2023-05-23T12:00:04.517Z,37.90
2023-05-23T12:02:43.912Z,37.92
2023-05-23T12:05:16.440Z,37.99
2023-05-23T12:07:49.094Z,37.76
2023-05-23T12:16:20.595Z,37.69
2023-05-23T12:19:34.900Z,37.69
2023-05-23T12:22:42.927Z,37.70
2023-05-23T12:25:18.642Z,37.69
2023-05-23T12:27:51.095Z,37.60
2023-05-23T12:30:21.838Z,37.27
2023-05-23T12:32:54.261Z,37.35
2023-05-23T12:35:30.023Z,37.23
2023-05-23T12:38:01.204Z,36.83
2023-05-23T12:40:35.908Z,37.01
2023-05-23T12:43:13.332Z,36.86
2023-05-23T12:45:47.300Z,36.87
2023-05-23T12:48:17.939Z,36.80
2023-05-23T12:50:52.152Z,36.64
2023-05-23T12:53:24.975Z,36.80
2023-05-23T12:55:56.261Z,36.67
2023-05-23T12:58:28.091Z,36.54
2023-05-23T13:01:02.265Z,36.35
2023-05-23T13:03:38.798Z,36.15
2023-05-23T13:06:12.416Z,36.26
2023-05-23T13:08:43.109Z,36.54
2023-05-23T13:11:14.070Z,36.34
2023-05-23T13:13:44.672Z,36.13
2023-05-23T13:16:22.830Z,36.30
2023-05-23T13:18:54.376Z,36.57
2023-05-23T13:21:24.877Z,36.18
2023-05-23T13:23:55.549Z,36.03
2023-05-23T13:26:26.577Z,35.99
2023-05-23T13:28:59.830Z,36.28
2023-05-23T13:31:33.891Z,35.92
2023-05-23T13:34:04.405Z,35.95
2023-05-23T13:36:38.189Z,35.77
2023-05-23T13:39:10.612Z,35.80
2023-05-23T13:41:41.595Z,35.71
2023-05-23T13:44:12.181Z,35.92
2023-05-23T13:46:44.012Z,35.80
2023-05-23T13:49:14.663Z,35.87
2023-05-23T13:51:47.430Z,35.66
2023-05-23T13:54:18.111Z,35.68
2023-05-23T13:56:48.951Z,35.65
2023-05-23T13:59:21.864Z,35.71
2023-05-23T14:01:54.579Z,35.48
2023-05-23T14:04:25.307Z,35.67
2023-05-23T14:07:06.251Z,35.47
2023-05-23T14:09:40.501Z,35.64
2023-05-23T14:12:15.297Z,35.49
2023-05-23T14:14:47.495Z,35.51
2023-05-23T14:17:21.891Z,35.63
2023-05-23T14:19:55.433Z,35.42
2023-05-23T14:22:27.078Z,35.50
2023-05-23T14:25:00.365Z,35.38
2023-05-23T14:27:30.994Z,35.46
2023-05-23T14:30:08.197Z,35.30
2023-05-23T14:32:42.645Z,35.57
2023-05-23T14:35:16.073Z,35.15
2023-05-23T14:37:48.994Z,35.45
2023-05-23T14:40:27.250Z,35.48
2023-05-23T14:42:57.975Z,35.27
2023-05-23T14:45:32.186Z,35.24
2023-05-23T14:48:03.158Z,35.31
2023-05-23T14:50:40.070Z,35.45
2023-05-23T14:53:22.988Z,35.20
2023-05-23T14:55:53.880Z,35.39
2023-05-23T14:58:26.053Z,35.93
2023-05-23T15:00:56.936Z,36.11
2023-05-23T15:03:28.152Z,36.16
2023-05-23T15:06:01.131Z,36.46
2023-05-23T15:08:32.205Z,37.04
2023-05-23T15:11:03.068Z,37.29
2023-05-23T15:13:38.806Z,37.38
2023-05-23T15:16:11.546Z,37.48
2023-05-23T15:18:42.522Z,37.23
2023-05-23T15:21:16.302Z,37.00
2023-05-23T15:23:47.064Z,36.73
2023-05-23T15:26:18.794Z,36.94
2023-05-23T15:28:49.900Z,37.33
2023-05-23T15:31:21.253Z,36.94
2023-05-23T15:33:53.836Z,36.55
2023-05-23T15:36:26.673Z,36.88
2023-05-23T15:39:02.852Z,37.38
2023-05-23T15:41:37.777Z,37.55
2023-05-23T15:44:18.380Z,37.85
2023-05-23T15:46:55.573Z,38.02
2023-05-23T15:49:27.836Z,37.82
2023-05-23T15:52:00.572Z,37.87
2023-05-23T15:54:31.012Z,37.51
2023-05-23T15:57:01.587Z,37.82
2023-05-23T15:59:34.433Z,37.73
2023-05-23T16:02:08.208Z,38.08
2023-05-23T16:04:40.791Z,37.93
2023-05-23T16:07:21.906Z,38.19
2023-05-23T16:09:52.876Z,38.48
2023-05-23T16:12:23.979Z,38.35
2023-05-23T16:14:58.660Z,38.50
2023-05-23T16:17:34.382Z,38.69
2023-05-23T16:26:11.393Z,39.38
2023-05-23T16:28:51.154Z,39.13
2023-05-23T16:31:59.246Z,39.39
2023-05-23T16:34:57.490Z,39.26
2023-05-23T16:37:28.569Z,39.24
2023-05-23T16:40:07.833Z,39.24
2023-05-23T16:43:03.459Z,39.45
2023-05-23T16:45:51.029Z,39.59
2023-05-23T16:48:25.076Z,39.92
2023-05-23T16:50:58.654Z,40.11
2023-05-23T16:53:30.588Z,39.90
2023-05-23T16:56:01.534Z,40.08
2023-05-23T16:58:38.653Z,39.98
2023-05-23T17:01:10.688Z,40.43
2023-05-23T17:03:41.870Z,40.60
2023-05-23T17:06:14.191Z,40.75
2023-05-23T17:08:49.773Z,40.57
2023-05-23T17:11:20.687Z,40.52
2023-05-23T17:13:52.561Z,40.51
2023-05-23T17:16:24.290Z,40.75
2023-05-23T17:18:55.061Z,40.72
2023-05-23T17:21:26.003Z,40.81
2023-05-23T17:23:57.363Z,40.91
2023-05-23T17:26:34.585Z,40.79
2023-05-23T17:29:05.292Z,41.05
2023-05-23T17:31:40.671Z,41.22
2023-05-23T17:34:19.566Z,41.34
2023-05-23T17:36:58.736Z,41.27
2023-05-23T17:39:29.641Z,41.49
2023-05-23T17:42:02.636Z,41.52
2023-05-23T17:44:37.821Z,41.57
2023-05-23T17:47:10.753Z,41.60
2023-05-23T17:49:43.503Z,41.59
2023-05-23T17:52:15.289Z,41.67
2023-05-23T17:54:46.192Z,41.62
2023-05-23T17:57:17.555Z,41.61
2023-05-23T17:59:51.209Z,41.61
2023-05-23T18:02:28.330Z,41.71
2023-05-23T18:04:59.135Z,41.92
2023-05-23T18:07:30.028Z,41.92
2023-05-23T18:10:01.334Z,42.14
2023-05-23T18:12:32.209Z,42.28
2023-05-23T18:15:05.677Z,42.04
2023-05-23T18:17:36.916Z,42.41
2023-05-23T18:20:11.849Z,42.38
2023-05-23T18:22:42.608Z,42.51
2023-05-23T18:25:20.010Z,42.68
2023-05-23T18:27:51.140Z,42.88
2023-05-23T18:30:25.568Z,42.87
2023-05-23T18:32:57.830Z,42.83
2023-05-23T18:35:28.891Z,42.82
2023-05-23T18:37:59.542Z,42.82
2023-05-23T18:43:18.018Z,42.99
2023-05-23T18:45:53.406Z,43.15
2023-05-23T18:48:24.715Z,43.22
2023-05-23T18:50:55.515Z,43.23
2023-05-23T18:53:27.062Z,43.21
2023-05-23T18:55:58.185Z,43.37
2023-05-23T18:58:29.650Z,43.36
2023-05-23T19:01:13.434Z,43.46
2023-05-23T19:04:19.990Z,43.55
2023-05-23T19:07:21.707Z,43.68
2023-05-23T19:10:31.862Z,43.66
2023-05-23T19:13:43.256Z,43.84
2023-05-23T19:16:43.165Z,43.73
2023-05-23T19:20:20.387Z,44.03
2023-05-23T19:23:29.603Z,44.20
2023-05-23T19:26:27.485Z,44.09
2023-05-23T19:29:36.276Z,44.18
2023-05-23T19:32:39.305Z,44.31
2023-05-23T19:35:55.354Z,44.42
2023-05-23T19:39:12.874Z,44.48
2023-05-23T19:41:54.018Z,44.56
2023-05-23T19:44:43.495Z,44.71
2023-05-23T19:47:49.955Z,44.50
2023-05-23T19:50:32.256Z,44.62
2023-05-23T19:53:16.126Z,44.69
2023-05-23T19:56:04.155Z,44.71
2023-05-23T19:58:59.469Z,44.89
2023-05-23T20:01:57.475Z,44.75
2023-05-23T20:05:04.919Z,44.07
2023-05-23T20:07:40.832Z,44.53
2023-05-23T20:10:12.878Z,44.83
2023-05-23T20:12:49.031Z,45.14
2023-05-23T20:15:31.362Z,45.31
2023-05-23T20:18:16.422Z,45.29
2023-05-23T20:20:52.363Z,45.44
2023-05-23T20:23:25.778Z,45.41
2023-05-23T20:25:56.939Z,45.53
2023-05-23T20:28:28.712Z,45.75
2023-05-23T20:31:00.449Z,45.74
2023-05-23T20:33:31.277Z,46.01
2023-05-23T20:42:33.094Z,46.02
2023-05-23T20:45:02.157Z,46.03
2023-05-23T20:53:31.951Z,46.07
2023-05-23T20:56:08.036Z,46.09
2023-05-23T20:58:46.260Z,46.23
2023-05-23T21:01:24.312Z,46.08
2023-05-23T21:03:57.746Z,45.84
2023-05-23T21:06:33.033Z,46.00
2023-05-23T21:09:10.170Z,46.13
2023-05-23T21:11:45.141Z,46.20
2023-05-23T21:14:22.047Z,46.15
2023-05-23T21:16:53.522Z,46.25
2023-05-23T21:19:26.679Z,46.19
2023-05-23T21:22:47.629Z,46.33
2023-05-23T21:25:19.081Z,46.36
2023-05-23T21:28:13.719Z,46.48
2023-05-23T21:30:45.091Z,46.44
2023-05-23T21:33:16.734Z,46.39
2023-05-23T21:35:50.694Z,46.58
2023-05-23T21:38:28.179Z,46.57
2023-05-23T21:41:04.821Z,46.66
2023-05-23T21:43:37.511Z,46.75
2023-05-23T21:46:11.495Z,46.82
2023-05-23T21:48:44.766Z,46.91
2023-05-23T21:51:18.251Z,46.96
2023-05-23T21:53:53.885Z,47.06
2023-05-23T21:56:30.581Z,47.03
2023-05-23T21:59:01.968Z,47.03
2023-05-23T22:01:36.164Z,47.11
2023-05-23T22:04:07.211Z,47.15
2023-05-23T22:06:43.222Z,47.20
2023-05-23T22:09:18.536Z,47.16
2023-05-23T22:11:51.892Z,47.23
2023-05-23T22:14:26.889Z,47.33
2023-05-23T22:16:59.563Z,47.40
2023-05-23T22:19:30.797Z,47.49
2023-05-23T22:26:19.230Z,47.47
2023-05-23T22:29:36.719Z,47.62
2023-05-23T22:36:21.834Z,47.77
2023-05-23T22:39:18.812Z,47.65
2023-05-23T22:41:54.392Z,47.69
2023-05-23T22:44:27.295Z,47.79
2023-05-23T22:47:04.700Z,47.92
2023-05-23T22:56:04.003Z,48.05
2023-05-23T22:58:48.957Z,48.12
2023-05-23T23:01:26.772Z,48.25
2023-05-23T23:04:01.744Z,48.31
2023-05-23T23:07:01.836Z,48.34
2023-05-23T23:09:41.220Z,48.33
2023-05-23T23:12:38.102Z,48.37
2023-05-23T23:15:39.434Z,48.40
2023-05-23T23:18:29.249Z,48.47
2023-05-23T23:21:38.871Z,48.53
2023-05-23T23:24:28.945Z,48.50
2023-05-23T23:27:38.940Z,48.50
2023-05-23T23:30:49.681Z,48.79
2023-05-23T23:33:24.669Z,48.74
2023-05-23T23:36:03.734Z,48.87
2023-05-23T23:38:35.764Z,48.94
2023-05-23T23:41:12.846Z,48.99
2023-05-23T23:43:44.247Z,48.96
2023-05-23T23:46:15.338Z,49.10
2023-05-23T23:48:50.150Z,49.16
2023-05-23T23:51:20.956Z,49.20
2023-05-23T23:53:53.647Z,49.21
2023-05-23T23:56:37.041Z,49.29
2023-05-23T23:59:15.617Z,49.23
